sensor_id;sensor_type;location;lat;lon;timestamp;pressure;altitude;pressure_sealevel;temperature;humidity
50368;BME280;36281;34.132;-118.018;2023-02-19T00:00:02;99962.50;;;20.47;16.84
50368;BME280;36281;34.132;-118.018;2023-02-19T00:02:31;99959.50;;;20.44;17.72
50368;BME280;36281;34.132;-118.018;2023-02-19T00:05:05;99968.16;;;20.40;18.03
50368;BME280;36281;34.132;-118.018;2023-02-19T00:07:34;99967.06;;;20.36;18.02
50368;BME280;36281;34.132;-118.018;2023-02-19T00:10:03;99969.78;;;20.31;18.10
50368;BME280;36281;34.132;-118.018;2023-02-19T00:12:32;99973.00;;;20.28;18.43
50368;BME280;36281;34.132;-118.018;2023-02-19T00:15:01;99977.59;;;20.23;18.33
50368;BME280;36281;34.132;-118.018;2023-02-19T00:17:31;99979.22;;;20.19;17.96
50368;BME280;36281;34.132;-118.018;2023-02-19T00:19:59;99984.34;;;20.15;18.60
50368;BME280;36281;34.132;-118.018;2023-02-19T00:22:30;99978.19;;;20.09;18.62
50368;BME280;36281;34.132;-118.018;2023-02-19T00:24:59;99996.72;;;20.06;19.29
50368;BME280;36281;34.132;-118.018;2023-02-19T00:27:28;99994.56;;;19.98;19.97
50368;BME280;36281;34.132;-118.018;2023-02-19T00:29:57;99980.06;;;19.88;19.86
50368;BME280;36281;34.132;-118.018;2023-02-19T00:32:26;99994.06;;;19.80;20.35
50368;BME280;36281;34.132;-118.018;2023-02-19T00:34:55;100009.38;;;19.70;20.42
50368;BME280;36281;34.132;-118.018;2023-02-19T00:37:25;100004.81;;;19.60;20.51
50368;BME280;36281;34.132;-118.018;2023-02-19T00:39:55;100008.25;;;19.50;20.99
50368;BME280;36281;34.132;-118.018;2023-02-19T00:42:24;100002.31;;;19.38;21.08
50368;BME280;36281;34.132;-118.018;2023-02-19T00:44:53;99999.63;;;19.28;20.97
50368;BME280;36281;34.132;-118.018;2023-02-19T00:47:22;100007.94;;;19.21;21.40
50368;BME280;36281;34.132;-118.018;2023-02-19T00:49:51;100008.19;;;19.15;21.67
50368;BME280;36281;34.132;-118.018;2023-02-19T00:52:20;100010.31;;;19.07;21.77
50368;BME280;36281;34.132;-118.018;2023-02-19T00:54:49;100011.66;;;19.00;22.10
50368;BME280;36281;34.132;-118.018;2023-02-19T00:57:20;100011.06;;;18.93;22.76
50368;BME280;36281;34.132;-118.018;2023-02-19T00:59:49;100008.06;;;18.84;23.38
50368;BME280;36281;34.132;-118.018;2023-02-19T01:02:18;100002.44;;;18.75;24.14
50368;BME280;36281;34.132;-118.018;2023-02-19T01:04:47;100004.19;;;18.65;23.88
50368;BME280;36281;34.132;-118.018;2023-02-19T01:07:16;100002.84;;;18.57;23.91
50368;BME280;36281;34.132;-118.018;2023-02-19T01:09:45;100008.44;;;18.50;23.80
50368;BME280;36281;34.132;-118.018;2023-02-19T01:12:14;100001.97;;;18.46;24.04
50368;BME280;36281;34.132;-118.018;2023-02-19T01:14:45;100002.19;;;18.40;24.38
50368;BME280;36281;34.132;-118.018;2023-02-19T01:17:14;100000.28;;;18.30;24.72
50368;BME280;36281;34.132;-118.018;2023-02-19T01:19:43;99999.97;;;18.21;24.88
50368;BME280;36281;34.132;-118.018;2023-02-19T01:22:12;100000.44;;;18.13;25.04
50368;BME280;36281;34.132;-118.018;2023-02-19T01:24:42;99985.91;;;18.04;25.43
50368;BME280;36281;34.132;-118.018;2023-02-19T01:27:11;99982.06;;;17.95;24.86
50368;BME280;36281;34.132;-118.018;2023-02-19T01:29:41;99997.84;;;17.86;24.90
50368;BME280;36281;34.132;-118.018;2023-02-19T01:32:11;100001.78;;;17.78;25.02
50368;BME280;36281;34.132;-118.018;2023-02-19T01:34:41;100002.47;;;17.69;25.51
50368;BME280;36281;34.132;-118.018;2023-02-19T01:37:10;100006.44;;;17.61;25.48
50368;BME280;36281;34.132;-118.018;2023-02-19T01:39:39;100008.78;;;17.52;25.67
50368;BME280;36281;34.132;-118.018;2023-02-19T01:42:13;100007.59;;;17.43;25.75
50368;BME280;36281;34.132;-118.018;2023-02-19T01:47:52;100010.88;;;17.23;25.89
50368;BME280;36281;34.132;-118.018;2023-02-19T01:50:23;100008.09;;;17.13;25.80
50368;BME280;36281;34.132;-118.018;2023-02-19T01:52:55;100006.66;;;17.05;25.89
50368;BME280;36281;34.132;-118.018;2023-02-19T01:55:24;100002.59;;;16.98;26.43
50368;BME280;36281;34.132;-118.018;2023-02-19T01:57:54;100005.69;;;16.90;25.83
50368;BME280;36281;34.132;-118.018;2023-02-19T02:00:24;100005.09;;;16.83;26.98
50368;BME280;36281;34.132;-118.018;2023-02-19T02:02:55;100013.78;;;16.73;27.40
50368;BME280;36281;34.132;-118.018;2023-02-19T02:05:35;100019.22;;;16.61;27.32
50368;BME280;36281;34.132;-118.018;2023-02-19T02:08:05;100016.09;;;16.47;28.15
50368;BME280;36281;34.132;-118.018;2023-02-19T02:10:52;100014.28;;;16.31;28.69
50368;BME280;36281;34.132;-118.018;2023-02-19T02:13:22;100023.91;;;16.15;29.51
50368;BME280;36281;34.132;-118.018;2023-02-19T02:15:57;100016.53;;;16.06;29.44
50368;BME280;36281;34.132;-118.018;2023-02-19T02:18:37;100019.66;;;15.97;30.07
50368;BME280;36281;34.132;-118.018;2023-02-19T02:21:33;100021.34;;;15.87;30.54
50368;BME280;36281;34.132;-118.018;2023-02-19T02:24:19;100030.00;;;15.77;30.91
50368;BME280;36281;34.132;-118.018;2023-02-19T02:27:04;100021.81;;;15.67;31.18
50368;BME280;36281;34.132;-118.018;2023-02-19T02:30:10;100021.03;;;15.55;31.85
50368;BME280;36281;34.132;-118.018;2023-02-19T02:32:52;100023.75;;;15.43;31.24
50368;BME280;36281;34.132;-118.018;2023-02-19T02:35:24;100018.00;;;15.34;31.93
50368;BME280;36281;34.132;-118.018;2023-02-19T02:37:59;100018.88;;;15.23;31.15
50368;BME280;36281;34.132;-118.018;2023-02-19T02:40:30;100022.16;;;15.13;31.82
50368;BME280;36281;34.132;-118.018;2023-02-19T02:43:00;100022.75;;;15.04;32.47
50368;BME280;36281;34.132;-118.018;2023-02-19T02:45:32;100019.41;;;14.96;32.87
50368;BME280;36281;34.132;-118.018;2023-02-19T02:48:13;100020.84;;;14.87;33.51
50368;BME280;36281;34.132;-118.018;2023-02-19T02:50:47;100031.84;;;14.79;33.98
50368;BME280;36281;34.132;-118.018;2023-02-19T02:53:21;100043.38;;;14.68;33.61
50368;BME280;36281;34.132;-118.018;2023-02-19T02:56:10;100038.38;;;14.60;33.26
50368;BME280;36281;34.132;-118.018;2023-02-19T02:58:40;100041.38;;;14.52;33.39
50368;BME280;36281;34.132;-118.018;2023-02-19T03:01:16;100051.91;;;14.46;33.89
50368;BME280;36281;34.132;-118.018;2023-02-19T03:04:09;100046.34;;;14.36;34.32
50368;BME280;36281;34.132;-118.018;2023-02-19T03:06:41;100047.28;;;14.30;34.55
50368;BME280;36281;34.132;-118.018;2023-02-19T03:09:16;100052.38;;;14.20;34.58
50368;BME280;36281;34.132;-118.018;2023-02-19T03:11:49;100045.75;;;14.11;34.73
50368;BME280;36281;34.132;-118.018;2023-02-19T03:14:45;100050.84;;;14.01;35.45
50368;BME280;36281;34.132;-118.018;2023-02-19T03:17:38;100046.31;;;13.89;35.14
50368;BME280;36281;34.132;-118.018;2023-02-19T03:20:28;100046.63;;;13.81;35.40
50368;BME280;36281;34.132;-118.018;2023-02-19T03:22:59;100053.13;;;13.74;36.22
50368;BME280;36281;34.132;-118.018;2023-02-19T03:25:31;100058.75;;;13.65;36.30
50368;BME280;36281;34.132;-118.018;2023-02-19T03:28:21;100069.13;;;13.55;36.54
50368;BME280;36281;34.132;-118.018;2023-02-19T03:31:17;100074.41;;;13.43;36.56
50368;BME280;36281;34.132;-118.018;2023-02-19T03:33:53;100084.78;;;13.33;36.95
50368;BME280;36281;34.132;-118.018;2023-02-19T03:36:28;100081.38;;;13.26;36.10
50368;BME280;36281;34.132;-118.018;2023-02-19T03:39:01;100082.47;;;13.18;37.10
50368;BME280;36281;34.132;-118.018;2023-02-19T03:41:34;100086.25;;;13.11;36.94
50368;BME280;36281;34.132;-118.018;2023-02-19T03:44:08;100091.03;;;13.02;37.16
50368;BME280;36281;34.132;-118.018;2023-02-19T03:46:45;100093.19;;;12.93;37.43
50368;BME280;36281;34.132;-118.018;2023-02-19T03:49:25;100100.03;;;12.83;37.80
50368;BME280;36281;34.132;-118.018;2023-02-19T03:52:02;100093.19;;;12.75;38.49
50368;BME280;36281;34.132;-118.018;2023-02-19T03:54:37;100098.34;;;12.70;39.30
50368;BME280;36281;34.132;-118.018;2023-02-19T03:57:15;100105.13;;;12.66;39.61
50368;BME280;36281;34.132;-118.018;2023-02-19T03:59:49;100106.81;;;12.60;39.60
50368;BME280;36281;34.132;-118.018;2023-02-19T04:02:26;100098.69;;;12.55;39.63
50368;BME280;36281;34.132;-118.018;2023-02-19T04:05:03;100104.66;;;12.51;40.46
50368;BME280;36281;34.132;-118.018;2023-02-19T04:07:38;100107.97;;;12.46;41.27
50368;BME280;36281;34.132;-118.018;2023-02-19T04:10:09;100112.09;;;12.42;41.44
50368;BME280;36281;34.132;-118.018;2023-02-19T04:12:42;100114.22;;;12.33;40.86
50368;BME280;36281;34.132;-118.018;2023-02-19T04:15:13;100115.88;;;12.28;40.84
50368;BME280;36281;34.132;-118.018;2023-02-19T04:17:46;100116.50;;;12.23;41.17
50368;BME280;36281;34.132;-118.018;2023-02-19T04:20:22;100128.00;;;12.17;41.72
50368;BME280;36281;34.132;-118.018;2023-02-19T04:22:53;100133.16;;;12.12;41.94
50368;BME280;36281;34.132;-118.018;2023-02-19T04:25:25;100131.94;;;12.08;41.94
50368;BME280;36281;34.132;-118.018;2023-02-19T04:27:55;100130.16;;;12.02;41.40
50368;BME280;36281;34.132;-118.018;2023-02-19T04:30:24;100135.91;;;11.99;42.00
50368;BME280;36281;34.132;-118.018;2023-02-19T04:32:53;100131.44;;;11.93;42.54
50368;BME280;36281;34.132;-118.018;2023-02-19T04:35:24;100139.84;;;11.89;42.61
50368;BME280;36281;34.132;-118.018;2023-02-19T04:37:53;100138.03;;;11.83;43.79
50368;BME280;36281;34.132;-118.018;2023-02-19T04:40:22;100142.31;;;11.78;43.80
50368;BME280;36281;34.132;-118.018;2023-02-19T04:42:51;100141.78;;;11.69;43.37
50368;BME280;36281;34.132;-118.018;2023-02-19T04:45:20;100148.94;;;11.62;43.76
50368;BME280;36281;34.132;-118.018;2023-02-19T04:47:49;100155.66;;;11.58;43.28
50368;BME280;36281;34.132;-118.018;2023-02-19T04:50:19;100163.66;;;11.51;43.29
50368;BME280;36281;34.132;-118.018;2023-02-19T04:52:49;100168.56;;;11.48;43.72
50368;BME280;36281;34.132;-118.018;2023-02-19T04:55:18;100167.78;;;11.41;43.87
50368;BME280;36281;34.132;-118.018;2023-02-19T04:57:47;100171.28;;;11.34;44.73
50368;BME280;36281;34.132;-118.018;2023-02-19T05:00:16;100171.09;;;11.29;45.51
50368;BME280;36281;34.132;-118.018;2023-02-19T05:02:45;100174.56;;;11.23;46.07
50368;BME280;36281;34.132;-118.018;2023-02-19T05:05:15;100179.50;;;11.20;46.10
50368;BME280;36281;34.132;-118.018;2023-02-19T05:07:44;100179.50;;;11.13;46.37
50368;BME280;36281;34.132;-118.018;2023-02-19T05:10:15;100190.53;;;11.10;47.08
50368;BME280;36281;34.132;-118.018;2023-02-19T05:12:44;100195.63;;;11.05;47.69
50368;BME280;36281;34.132;-118.018;2023-02-19T05:15:13;100196.25;;;11.00;47.86
50368;BME280;36281;34.132;-118.018;2023-02-19T05:17:42;100199.50;;;10.96;47.37
50368;BME280;36281;34.132;-118.018;2023-02-19T05:20:11;100206.63;;;10.88;45.86
50368;BME280;36281;34.132;-118.018;2023-02-19T05:22:41;100203.59;;;10.85;46.35
50368;BME280;36281;34.132;-118.018;2023-02-19T05:25:10;100209.31;;;10.82;45.87
50368;BME280;36281;34.132;-118.018;2023-02-19T05:27:41;100214.41;;;10.77;45.88
50368;BME280;36281;34.132;-118.018;2023-02-19T05:30:10;100220.31;;;10.72;45.21
50368;BME280;36281;34.132;-118.018;2023-02-19T05:32:40;100210.94;;;10.70;45.30
50368;BME280;36281;34.132;-118.018;2023-02-19T05:35:09;100218.25;;;10.68;45.75
50368;BME280;36281;34.132;-118.018;2023-02-19T05:37:38;100222.16;;;10.65;46.88
50368;BME280;36281;34.132;-118.018;2023-02-19T05:40:07;100218.28;;;10.61;47.13
50368;BME280;36281;34.132;-118.018;2023-02-19T05:42:36;100224.78;;;10.58;46.57
50368;BME280;36281;34.132;-118.018;2023-02-19T05:45:08;100240.06;;;10.56;46.41
50368;BME280;36281;34.132;-118.018;2023-02-19T05:47:37;100233.31;;;10.54;46.98
50368;BME280;36281;34.132;-118.018;2023-02-19T05:50:06;100238.22;;;10.50;47.05
50368;BME280;36281;34.132;-118.018;2023-02-19T05:52:35;100233.53;;;10.46;47.16
50368;BME280;36281;34.132;-118.018;2023-02-19T05:55:05;100238.19;;;10.44;47.17
50368;BME280;36281;34.132;-118.018;2023-02-19T05:57:39;100233.50;;;10.39;47.14
50368;BME280;36281;34.132;-118.018;2023-02-19T06:00:14;100235.75;;;10.35;47.54
50368;BME280;36281;34.132;-118.018;2023-02-19T06:02:43;100235.34;;;10.32;47.65
50368;BME280;36281;34.132;-118.018;2023-02-19T06:05:12;100243.88;;;10.27;47.50
50368;BME280;36281;34.132;-118.018;2023-02-19T06:07:41;100245.47;;;10.22;47.64
50368;BME280;36281;34.132;-118.018;2023-02-19T06:10:11;100241.78;;;10.16;47.17
50368;BME280;36281;34.132;-118.018;2023-02-19T06:12:40;100250.13;;;10.13;47.29
50368;BME280;36281;34.132;-118.018;2023-02-19T06:15:11;100256.44;;;10.12;47.87
50368;BME280;36281;34.132;-118.018;2023-02-19T06:17:40;100256.81;;;10.09;48.02
50368;BME280;36281;34.132;-118.018;2023-02-19T06:20:10;100254.97;;;10.03;48.60
50368;BME280;36281;34.132;-118.018;2023-02-19T06:22:39;100253.72;;;9.99;48.32
50368;BME280;36281;34.132;-118.018;2023-02-19T06:25:08;100255.16;;;9.95;48.37
50368;BME280;36281;34.132;-118.018;2023-02-19T06:27:40;100250.84;;;9.87;48.31
50368;BME280;36281;34.132;-118.018;2023-02-19T06:30:12;100250.63;;;9.82;48.66
50368;BME280;36281;34.132;-118.018;2023-02-19T06:32:41;100253.47;;;9.80;48.43
50368;BME280;36281;34.132;-118.018;2023-02-19T06:35:10;100250.59;;;9.75;48.79
50368;BME280;36281;34.132;-118.018;2023-02-19T06:37:39;100257.28;;;9.71;48.56
50368;BME280;36281;34.132;-118.018;2023-02-19T06:40:08;100252.59;;;9.67;48.59
50368;BME280;36281;34.132;-118.018;2023-02-19T06:42:38;100258.25;;;9.64;49.16
50368;BME280;36281;34.132;-118.018;2023-02-19T06:45:07;100262.13;;;9.61;48.87
50368;BME280;36281;34.132;-118.018;2023-02-19T06:47:38;100265.97;;;9.58;48.14
50368;BME280;36281;34.132;-118.018;2023-02-19T06:50:07;100267.19;;;9.56;48.01
50368;BME280;36281;34.132;-118.018;2023-02-19T06:52:36;100257.81;;;9.53;47.87
50368;BME280;36281;34.132;-118.018;2023-02-19T06:55:05;100261.66;;;9.51;47.83
50368;BME280;36281;34.132;-118.018;2023-02-19T06:57:34;100264.31;;;9.51;47.04
50368;BME280;36281;34.132;-118.018;2023-02-19T07:00:04;100257.41;;;9.50;47.30
50368;BME280;36281;34.132;-118.018;2023-02-19T07:02:33;100253.31;;;9.47;47.51
50368;BME280;36281;34.132;-118.018;2023-02-19T07:05:04;100264.69;;;9.48;48.04
50368;BME280;36281;34.132;-118.018;2023-02-19T07:07:33;100256.16;;;9.46;48.08
50368;BME280;36281;34.132;-118.018;2023-02-19T07:10:03;100257.16;;;9.45;48.37
50368;BME280;36281;34.132;-118.018;2023-02-19T07:12:32;100258.16;;;9.44;48.38
50368;BME280;36281;34.132;-118.018;2023-02-19T07:15:01;100258.56;;;9.41;48.49
50368;BME280;36281;34.132;-118.018;2023-02-19T07:17:30;100256.28;;;9.38;48.42
50368;BME280;36281;34.132;-118.018;2023-02-19T07:19:59;100256.50;;;9.36;48.05
50368;BME280;36281;34.132;-118.018;2023-02-19T07:22:30;100252.41;;;9.33;48.56
50368;BME280;36281;34.132;-118.018;2023-02-19T07:24:59;100249.34;;;9.30;48.33
50368;BME280;36281;34.132;-118.018;2023-02-19T07:27:28;100249.72;;;9.27;48.38
50368;BME280;36281;34.132;-118.018;2023-02-19T07:29:57;100252.75;;;9.24;48.66
50368;BME280;36281;34.132;-118.018;2023-02-19T07:32:26;100243.38;;;9.21;48.60
50368;BME280;36281;34.132;-118.018;2023-02-19T07:34:55;100246.59;;;9.17;48.63
50368;BME280;36281;34.132;-118.018;2023-02-19T07:37:24;100243.31;;;9.15;49.42
50368;BME280;36281;34.132;-118.018;2023-02-19T07:39:55;100236.00;;;9.10;50.00
50368;BME280;36281;34.132;-118.018;2023-02-19T07:42:24;100233.94;;;9.05;50.20
50368;BME280;36281;34.132;-118.018;2023-02-19T07:44:53;100231.66;;;9.02;50.31
50368;BME280;36281;34.132;-118.018;2023-02-19T07:47:22;100228.78;;;8.97;50.08
50368;BME280;36281;34.132;-118.018;2023-02-19T07:49:51;100229.16;;;8.94;50.78
50368;BME280;36281;34.132;-118.018;2023-02-19T07:52:20;100227.72;;;8.92;50.71
50368;BME280;36281;34.132;-118.018;2023-02-19T07:54:49;100218.34;;;8.89;50.98
50368;BME280;36281;34.132;-118.018;2023-02-19T07:57:20;100222.41;;;8.85;50.92
50368;BME280;36281;34.132;-118.018;2023-02-19T07:59:49;100215.06;;;8.80;51.18
50368;BME280;36281;34.132;-118.018;2023-02-19T08:02:19;100211.78;;;8.78;51.27
50368;BME280;36281;34.132;-118.018;2023-02-19T08:05:06;100207.88;;;8.74;51.37
50368;BME280;36281;34.132;-118.018;2023-02-19T08:07:36;100207.47;;;8.71;50.87
50368;BME280;36281;34.132;-118.018;2023-02-19T08:10:06;100206.00;;;8.68;50.65
50368;BME280;36281;34.132;-118.018;2023-02-19T08:12:58;100198.66;;;8.64;50.20
50368;BME280;36281;34.132;-118.018;2023-02-19T08:15:46;100193.13;;;8.59;50.84
50368;BME280;36281;34.132;-118.018;2023-02-19T08:18:16;100199.63;;;8.56;51.03
50368;BME280;36281;34.132;-118.018;2023-02-19T08:20:45;100198.97;;;8.54;50.96
50368;BME280;36281;34.132;-118.018;2023-02-19T08:23:15;100193.09;;;8.52;50.89
50368;BME280;36281;34.132;-118.018;2023-02-19T08:25:44;100189.19;;;8.48;50.64
50368;BME280;36281;34.132;-118.018;2023-02-19T08:28:14;100189.38;;;8.46;51.30
50368;BME280;36281;34.132;-118.018;2023-02-19T08:30:44;100185.50;;;8.42;51.84
50368;BME280;36281;34.132;-118.018;2023-02-19T08:33:15;100184.66;;;8.42;52.08
50368;BME280;36281;34.132;-118.018;2023-02-19T08:35:45;100186.88;;;8.38;52.01
50368;BME280;36281;34.132;-118.018;2023-02-19T08:38:14;100191.53;;;8.36;51.55
50368;BME280;36281;34.132;-118.018;2023-02-19T08:40:46;100185.78;;;8.33;51.84
50368;BME280;36281;34.132;-118.018;2023-02-19T08:43:17;100180.88;;;8.29;51.61
50368;BME280;36281;34.132;-118.018;2023-02-19T08:45:46;100178.41;;;8.28;51.67
50368;BME280;36281;34.132;-118.018;2023-02-19T08:48:15;100171.88;;;8.24;52.35
50368;BME280;36281;34.132;-118.018;2023-02-19T08:50:44;100171.81;;;8.17;52.14
50368;BME280;36281;34.132;-118.018;2023-02-19T08:53:20;100163.66;;;8.12;52.30
50368;BME280;36281;34.132;-118.018;2023-02-19T08:55:50;100161.22;;;8.11;52.70
50368;BME280;36281;34.132;-118.018;2023-02-19T08:58:21;100157.13;;;8.08;52.90
50368;BME280;36281;34.132;-118.018;2023-02-19T09:00:50;100156.50;;;8.06;53.01
50368;BME280;36281;34.132;-118.018;2023-02-19T09:03:19;100149.78;;;8.03;52.31
50368;BME280;36281;34.132;-118.018;2023-02-19T09:05:48;100150.97;;;8.01;52.74
50368;BME280;36281;34.132;-118.018;2023-02-19T09:08:17;100144.03;;;8.00;52.91
50368;BME280;36281;34.132;-118.018;2023-02-19T09:10:57;100140.19;;;7.96;53.43
50368;BME280;36281;34.132;-118.018;2023-02-19T09:13:28;100145.00;;;7.92;53.27
50368;BME280;36281;34.132;-118.018;2023-02-19T09:15:57;100150.63;;;7.89;53.38
50368;BME280;36281;34.132;-118.018;2023-02-19T09:18:26;100146.56;;;7.87;52.90
50368;BME280;36281;34.132;-118.018;2023-02-19T09:20:59;100142.66;;;7.83;53.43
50368;BME280;36281;34.132;-118.018;2023-02-19T09:23:28;100147.28;;;7.81;52.84
50368;BME280;36281;34.132;-118.018;2023-02-19T09:25:58;100153.16;;;7.76;53.21
50368;BME280;36281;34.132;-118.018;2023-02-19T09:28:29;100147.44;;;7.72;53.81
50368;BME280;36281;34.132;-118.018;2023-02-19T09:31:03;100146.97;;;7.69;53.52
50368;BME280;36281;34.132;-118.018;2023-02-19T09:33:33;100145.53;;;7.66;54.07
50368;BME280;36281;34.132;-118.018;2023-02-19T09:36:03;100155.81;;;7.61;53.74
50368;BME280;36281;34.132;-118.018;2023-02-19T09:38:32;100157.81;;;7.59;54.08
50368;BME280;36281;34.132;-118.018;2023-02-19T09:41:07;100151.28;;;7.55;54.58
50368;BME280;36281;34.132;-118.018;2023-02-19T09:43:38;100152.47;;;7.53;53.98
50368;BME280;36281;34.132;-118.018;2023-02-19T09:46:17;100147.56;;;7.49;54.46
50368;BME280;36281;34.132;-118.018;2023-02-19T09:48:49;100150.38;;;7.48;54.68
50368;BME280;36281;34.132;-118.018;2023-02-19T09:51:19;100148.91;;;7.45;54.33
50368;BME280;36281;34.132;-118.018;2023-02-19T09:53:50;100149.13;;;7.44;54.02
50368;BME280;36281;34.132;-118.018;2023-02-19T09:56:20;100143.84;;;7.44;54.26
50368;BME280;36281;34.132;-118.018;2023-02-19T09:58:52;100147.84;;;7.40;54.30
50368;BME280;36281;34.132;-118.018;2023-02-19T10:01:27;100149.03;;;7.37;54.15
50368;BME280;36281;34.132;-118.018;2023-02-19T10:03:58;100149.84;;;7.38;53.51
50368;BME280;36281;34.132;-118.018;2023-02-19T10:06:27;100149.84;;;7.38;54.39
50368;BME280;36281;34.132;-118.018;2023-02-19T10:09:12;100150.06;;;7.36;54.16
50368;BME280;36281;34.132;-118.018;2023-02-19T10:11:43;100143.31;;;7.34;54.05
50368;BME280;36281;34.132;-118.018;2023-02-19T10:14:16;100149.94;;;7.30;53.85
50368;BME280;36281;34.132;-118.018;2023-02-19T10:16:47;100146.03;;;7.25;54.18
50368;BME280;36281;34.132;-118.018;2023-02-19T10:19:17;100140.34;;;7.22;54.99
50368;BME280;36281;34.132;-118.018;2023-02-19T10:21:47;100137.88;;;7.20;54.78
50368;BME280;36281;34.132;-118.018;2023-02-19T10:24:19;100136.44;;;7.18;54.69
50368;BME280;36281;34.132;-118.018;2023-02-19T10:26:49;100130.34;;;7.17;54.61
50368;BME280;36281;34.132;-118.018;2023-02-19T10:29:20;100132.53;;;7.14;55.08
50368;BME280;36281;34.132;-118.018;2023-02-19T10:32:13;100128.81;;;7.08;55.10
50368;BME280;36281;34.132;-118.018;2023-02-19T10:34:42;100131.97;;;7.04;54.87
50368;BME280;36281;34.132;-118.018;2023-02-19T10:37:14;100131.16;;;7.03;55.07
50368;BME280;36281;34.132;-118.018;2023-02-19T10:39:45;100131.53;;;7.00;54.78
50368;BME280;36281;34.132;-118.018;2023-02-19T10:42:17;100123.00;;;6.98;54.93
50368;BME280;36281;34.132;-118.018;2023-02-19T10:44:51;100126.44;;;6.98;55.08
50368;BME280;36281;34.132;-118.018;2023-02-19T10:47:24;100120.38;;;6.98;54.66
50368;BME280;36281;34.132;-118.018;2023-02-19T10:49:55;100112.66;;;6.96;55.15
50368;BME280;36281;34.132;-118.018;2023-02-19T10:52:26;100110.03;;;6.96;55.00
50368;BME280;36281;34.132;-118.018;2023-02-19T10:54:57;100106.75;;;6.94;54.72
50368;BME280;36281;34.132;-118.018;2023-02-19T10:57:41;100100.66;;;6.94;55.14
50368;BME280;36281;34.132;-118.018;2023-02-19T11:00:22;100105.47;;;6.90;54.36
50368;BME280;36281;34.132;-118.018;2023-02-19T11:03:17;100111.53;;;6.91;53.77
50368;BME280;36281;34.132;-118.018;2023-02-19T11:05:53;100104.84;;;6.88;54.27
50368;BME280;36281;34.132;-118.018;2023-02-19T11:08:23;100105.47;;;6.90;54.48
50368;BME280;36281;34.132;-118.018;2023-02-19T11:10:52;100107.00;;;6.85;54.47
50368;BME280;36281;34.132;-118.018;2023-02-19T11:13:25;100099.31;;;6.83;55.42
50368;BME280;36281;34.132;-118.018;2023-02-19T11:16:00;100101.28;;;6.81;55.27
50368;BME280;36281;34.132;-118.018;2023-02-19T11:18:31;100098.22;;;6.78;55.33
50368;BME280;36281;34.132;-118.018;2023-02-19T11:21:02;100102.81;;;6.76;55.75
50368;BME280;36281;34.132;-118.018;2023-02-19T11:23:34;100100.56;;;6.72;55.45
50368;BME280;36281;34.132;-118.018;2023-02-19T11:26:06;100099.09;;;6.70;55.38
50368;BME280;36281;34.132;-118.018;2023-02-19T11:28:43;100095.03;;;6.67;55.34
50368;BME280;36281;34.132;-118.018;2023-02-19T11:31:23;100090.78;;;6.66;55.59
50368;BME280;36281;34.132;-118.018;2023-02-19T11:33:55;100088.84;;;6.60;55.36
50368;BME280;36281;34.132;-118.018;2023-02-19T11:36:30;100096.13;;;6.58;55.42
50368;BME280;36281;34.132;-118.018;2023-02-19T11:39:06;100091.19;;;6.55;55.33
50368;BME280;36281;34.132;-118.018;2023-02-19T11:41:57;100088.94;;;6.52;55.81
50368;BME280;36281;34.132;-118.018;2023-02-19T11:44:37;100093.53;;;6.50;55.61
50368;BME280;36281;34.132;-118.018;2023-02-19T11:50:15;100079.84;;;6.40;55.73
50368;BME280;36281;34.132;-118.018;2023-02-19T11:52:55;100090.72;;;6.37;56.47
50368;BME280;36281;34.132;-118.018;2023-02-19T11:55:40;100083.19;;;6.34;56.40
50368;BME280;36281;34.132;-118.018;2023-02-19T12:01:12;100072.19;;;6.30;55.70
50368;BME280;36281;34.132;-118.018;2023-02-19T12:03:57;100070.75;;;6.28;56.34
50368;BME280;36281;34.132;-118.018;2023-02-19T12:06:42;100075.34;;;6.26;56.63
50368;BME280;36281;34.132;-118.018;2023-02-19T12:09:36;100067.84;;;6.22;57.86
50368;BME280;36281;34.132;-118.018;2023-02-19T12:12:30;100074.44;;;6.18;57.20
50368;BME280;36281;34.132;-118.018;2023-02-19T12:15:31;100069.53;;;6.15;57.84
50368;BME280;36281;34.132;-118.018;2023-02-19T12:18:29;100070.72;;;6.13;58.25
50368;BME280;36281;34.132;-118.018;2023-02-19T12:21:13;100071.88;;;6.10;57.79
50368;BME280;36281;34.132;-118.018;2023-02-19T12:23:59;100069.63;;;6.07;58.09
50368;BME280;36281;34.132;-118.018;2023-02-19T12:26:36;100067.34;;;6.04;58.09
50368;BME280;36281;34.132;-118.018;2023-02-19T12:29:31;100077.22;;;6.02;57.69
50368;BME280;36281;34.132;-118.018;2023-02-19T12:32:29;100073.31;;;5.98;58.77
50368;BME280;36281;34.132;-118.018;2023-02-19T12:35:34;100076.28;;;5.95;58.64
50368;BME280;36281;34.132;-118.018;2023-02-19T12:38:19;100078.09;;;5.94;59.36
50368;BME280;36281;34.132;-118.018;2023-02-19T12:43:52;100076.28;;;5.95;58.01
50368;BME280;36281;34.132;-118.018;2023-02-19T12:46:28;100077.59;;;5.91;58.03
50368;BME280;36281;34.132;-118.018;2023-02-19T12:49:06;100089.78;;;5.92;58.17
50368;BME280;36281;34.132;-118.018;2023-02-19T12:51:42;100086.16;;;5.93;58.63
50368;BME280;36281;34.132;-118.018;2023-02-19T12:54:15;100086.16;;;5.93;58.61
50368;BME280;36281;34.132;-118.018;2023-02-19T12:56:51;100083.69;;;5.91;58.16
50368;BME280;36281;34.132;-118.018;2023-02-19T12:59:23;100081.91;;;5.92;58.39
50368;BME280;36281;34.132;-118.018;2023-02-19T13:01:58;100101.25;;;5.91;57.82
50368;BME280;36281;34.132;-118.018;2023-02-19T13:04:36;100100.44;;;5.90;57.53
50368;BME280;36281;34.132;-118.018;2023-02-19T13:07:12;100090.09;;;5.89;57.92